Time;durP1;ratioP1;P1;durP2;ratioP2;P2;SDS_P1;SDS_P2;PMS_P1;PMS_P2;Temp;Humidity;BMP_temperature;BMP_pressure;BME280_temperature;BME280_humidity;BME280_pressure;Samples;Min_cycle;Max_cycle;Signal;HPM_P1;HPM_P2
2023/09/17 00:02:20;;;;;;;12.95;8.73;;;;;;;20.02;96.15;101357.81;5103433;27;20155;-67
2023/09/17 00:04:47;;;;;;;14.35;10.68;;;;;;;20.00;97.87;101352.69;5112595;27;20415;-68
2023/09/17 00:07:13;;;;;;;15.38;11.10;;;;;;;19.97;96.46;101353.06;5111717;27;20046;-67
2023/09/17 00:09:40;;;;;;;14.55;10.93;;;;;;;19.91;98.96;101348.50;5116949;27;20062;-67
2023/09/17 00:12:06;;;;;;;12.98;10.93;;;;;;;19.91;96.70;101348.50;5112184;28;20078;-67
2023/09/17 00:14:34;;;;;;;12.50;10.05;;;;;;;19.81;96.40;101362.16;5117788;27;20480;-67
2023/09/17 00:17:00;;;;;;;11.95;8.77;;;;;;;19.88;96.89;101359.56;5111550;27;20132;-66
2023/09/17 00:19:27;;;;;;;13.15;10.85;;;;;;;19.80;94.50;101355.22;5104722;27;20055;-67
2023/09/17 00:21:53;;;;;;;13.30;10.23;;;;;;;19.78;95.82;101353.75;5119476;28;20062;-67
2023/09/17 00:24:20;;;;;;;11.93;9.82;;;;;;;19.81;95.86;101353.38;5108231;27;20098;-66
2023/09/17 00:26:47;;;;;;;12.88;10.55;;;;;;;19.78;95.81;101349.25;5123967;27;20059;-66
2023/09/17 00:29:13;;;;;;;13.30;10.38;;;;;;;19.71;93.76;101353.69;5089291;27;20104;-66
2023/09/17 00:31:40;;;;;;;15.00;9.75;;;;;;;19.68;94.76;101357.56;5105011;28;20051;-67
2023/09/17 00:34:07;;;;;;;11.68;9.25;;;;;;;19.66;93.33;101361.41;5108118;27;20421;-67
2023/09/17 00:36:33;;;;;;;14.52;10.48;;;;;;;19.62;93.45;101354.81;5110564;27;20099;-67
2023/09/17 00:39:00;;;;;;;15.40;11.15;;;;;;;19.64;99.68;101364.28;5112549;27;20051;-67
2023/09/17 00:41:26;;;;;;;15.02;10.95;;;;;;;19.62;99.00;101362.81;5108080;27;20091;-67
2023/09/17 00:43:53;;;;;;;15.05;11.27;;;;;;;19.57;100.00;101360.75;5119783;27;20078;-67
2023/09/17 00:46:20;;;;;;;13.87;10.87;;;;;;;19.52;100.00;101353.34;5110867;27;20051;-67
2023/09/17 00:48:47;;;;;;;11.85;9.95;;;;;;;19.47;100.00;101353.09;5120661;28;21679;-67
2023/09/17 00:51:13;;;;;;;12.65;11.18;;;;;;;19.49;100.00;101352.91;5106947;28;20062;-67
2023/09/17 00:53:40;;;;;;;12.68;11.38;;;;;;;19.42;100.00;101342.19;5119800;28;20480;-67
2023/09/17 00:56:07;;;;;;;15.07;11.98;;;;;;;19.43;100.00;101338.53;5118462;28;20043;-66
2023/09/17 00:58:34;;;;;;;16.98;12.23;;;;;;;19.42;100.00;101333.41;5116082;27;20089;-67
2023/09/17 01:01:03;;;;;;;16.65;12.32;;;;;;;19.34;100.00;101329.84;5115994;28;20043;-66
2023/09/17 01:03:31;;;;;;;15.27;12.40;;;;;;;19.33;100.00;101325.56;5116579;27;20058;-66
2023/09/17 01:06:00;;;;;;;13.95;11.90;;;;;;;19.31;100.00;101326.78;5119028;27;20129;-66
2023/09/17 01:08:27;;;;;;;18.40;11.80;;;;;;;19.28;100.00;101316.50;5104314;27;20063;-67
2023/09/17 01:10:54;;;;;;;14.65;11.90;;;;;;;19.29;100.00;101312.84;5115614;28;20058;-66
2023/09/17 01:13:23;;;;;;;11.93;9.43;;;;;;;19.27;100.00;101306.91;5109369;28;20043;-66
2023/09/17 01:15:51;;;;;;;13.88;11.20;;;;;;;19.24;100.00;101301.94;5101646;28;20122;-66
2023/09/17 01:18:21;;;;;;;14.40;11.82;;;;;;;19.24;100.00;101299.28;5110776;28;20051;-67
2023/09/17 01:21:01;;;;;;;15.82;11.73;;;;;;;19.21;100.00;101291.69;5104535;28;20147;-67
2023/09/17 01:23:39;;;;;;;17.55;12.90;;;;;;;19.16;100.00;101290.41;5117771;27;20096;-68
2023/09/17 01:26:15;;;;;;;18.03;14.20;;;;;;;19.13;100.00;101282.00;5113995;27;20046;-67
2023/09/17 01:28:43;;;;;;;14.52;12.85;;;;;;;19.06;100.00;101273.16;5119304;27;20465;-68
2023/09/17 01:31:09;;;;;;;18.20;14.47;;;;;;;18.98;100.00;101263.47;5119609;27;20096;-67
2023/09/17 01:33:36;;;;;;;17.75;14.68;;;;;;;18.85;100.00;101269.50;5121417;27;20051;-68
2023/09/17 01:36:15;;;;;;;18.65;14.60;;;;;;;18.82;100.00;101277.00;5108593;27;20074;-67
2023/09/17 01:38:48;;;;;;;15.90;14.20;;;;;;;18.74;100.00;101267.31;5104219;27;20043;-68
2023/09/17 01:41:17;;;;;;;19.85;14.95;;;;;;;18.72;100.00;101264.84;5125526;27;20468;-68
2023/09/17 01:43:45;;;;;;;17.95;14.38;;;;;;;18.70;100.00;101258.91;5111543;27;20116;-68
2023/09/17 01:46:12;;;;;;;17.70;15.35;;;;;;;18.69;100.00;101254.59;5116409;27;20100;-68
2023/09/17 01:48:42;;;;;;;19.27;15.98;;;;;;;18.66;100.00;101262.09;5105772;27;20616;-68
2023/09/17 01:51:11;;;;;;;15.02;12.82;;;;;;;18.61;100.00;101254.72;5112541;27;20048;-68
2023/09/17 01:53:38;;;;;;;21.65;15.85;;;;;;;18.54;100.00;101254.66;5118864;27;20103;-68
2023/09/17 01:56:04;;;;;;;17.45;15.60;;;;;;;18.53;100.00;101260.16;5109546;27;20043;-67
2023/09/17 01:58:31;;;;;;;15.95;13.75;;;;;;;18.54;100.00;101267.94;5117409;27;20529;-67
2023/09/17 02:00:57;;;;;;;17.00;15.20;;;;;;;18.52;100.00;101266.47;5115786;27;20427;-68
2023/09/17 02:03:24;;;;;;;15.43;13.68;;;;;;;18.52;100.00;101258.50;5116188;27;20116;-67
2023/09/17 02:05:51;;;;;;;19.55;15.52;;;;;;;18.46;100.00;101265.38;5116165;27;20751;-67
2023/09/17 02:08:17;;;;;;;16.88;14.85;;;;;;;18.42;100.00;101252.66;5115719;27;20071;-67
2023/09/17 02:10:43;;;;;;;16.60;14.75;;;;;;;18.40;100.00;101263.47;5106572;27;20051;-67
2023/09/17 02:13:10;;;;;;;16.38;14.20;;;;;;;18.37;100.00;101280.63;5105620;27;20048;-67
2023/09/17 02:15:36;;;;;;;18.05;15.10;;;;;;;18.33;100.00;101292.63;5105273;27;20617;-67
2023/09/17 02:18:03;;;;;;;17.55;14.52;;;;;;;18.32;100.00;101312.22;5105503;27;20039;-67
2023/09/17 02:20:30;;;;;;;18.48;14.40;;;;;;;18.32;100.00;101314.06;5125097;27;20131;-68
2023/09/17 02:22:56;;;;;;;17.25;14.68;;;;;;;18.34;100.00;101304.88;5122205;27;20104;-67
2023/09/17 02:25:23;;;;;;;17.67;13.43;;;;;;;18.28;100.00;101307.47;5104062;27;20078;-67
2023/09/17 02:27:50;;;;;;;16.25;12.02;;;;;;;18.46;100.00;101307.06;5123542;27;20623;-67
2023/09/17 02:30:16;;;;;;;16.13;13.85;;;;;;;18.41;100.00;101291.69;5103492;27;20039;-67
2023/09/17 02:32:43;;;;;;;13.25;11.20;;;;;;;18.40;100.00;101294.53;5103557;28;20056;-68
2023/09/17 02:35:11;;;;;;;15.90;13.93;;;;;;;18.35;100.00;101289.78;5117295;27;20076;-68
2023/09/17 02:37:37;;;;;;;15.80;12.35;;;;;;;18.32;100.00;101285.66;5113388;27;20047;-67
2023/09/17 02:40:08;;;;;;;15.27;13.68;;;;;;;18.34;100.00;101277.50;5124342;27;20047;-67
2023/09/17 02:42:36;;;;;;;17.50;13.20;;;;;;;18.31;100.00;101270.75;5110507;27;20177;-68
2023/09/17 02:45:04;;;;;;;19.45;14.00;;;;;;;18.14;100.00;101264.81;5111058;27;20063;-73
2023/09/17 02:47:33;;;;;;;14.02;10.98;;;;;;;18.15;100.00;101270.94;5118681;27;20062;-72
2023/09/17 02:50:00;;;;;;;16.73;14.05;;;;;;;18.04;100.00;101263.47;5120656;27;20078;-69
2023/09/17 02:52:27;;;;;;;16.38;12.65;;;;;;;18.03;100.00;101257.31;5103815;27;20108;-70
2023/09/17 02:54:56;;;;;;;14.98;12.70;;;;;;;17.96;100.00;101251.94;5112089;27;20070;-69
2023/09/17 02:57:23;;;;;;;15.88;14.02;;;;;;;17.92;100.00;101248.00;5116277;27;20089;-69
2023/09/17 02:59:50;;;;;;;16.30;12.82;;;;;;;17.95;100.00;101249.47;5112360;27;20047;-68
2023/09/17 03:02:17;;;;;;;18.77;14.63;;;;;;;17.91;100.00;101246.34;5115929;27;20039;-70
2023/09/17 03:04:44;;;;;;;15.57;13.63;;;;;;;17.90;100.00;101257.16;5107513;27;20058;-69
2023/09/17 03:07:11;;;;;;;16.95;14.30;;;;;;;17.83;100.00;101257.03;5133905;27;20042;-69
2023/09/17 03:09:38;;;;;;;18.08;13.32;;;;;;;17.86;100.00;101258.53;5126007;27;20070;-69
2023/09/17 03:12:06;;;;;;;17.80;14.55;;;;;;;17.82;100.00;101258.06;5125503;27;20047;-70
2023/09/17 03:14:32;;;;;;;17.50;14.35;;;;;;;17.74;100.00;101243.03;5128123;27;20046;-70
2023/09/17 03:16:59;;;;;;;15.15;13.32;;;;;;;17.74;100.00;101239.56;5121559;27;20043;-70
2023/09/17 03:19:26;;;;;;;18.13;13.30;;;;;;;17.74;100.00;101242.22;5116736;27;20055;-69
2023/09/17 03:21:53;;;;;;;18.70;13.43;;;;;;;17.78;100.00;101236.38;5105079;27;20051;-69
2023/09/17 03:24:19;;;;;;;16.20;13.55;;;;;;;17.78;100.00;101231.06;5110256;27;20089;-68
2023/09/17 03:26:46;;;;;;;19.08;14.10;;;;;;;17.76;100.00;101234.91;5114354;27;20047;-68
2023/09/17 03:29:12;;;;;;;18.15;14.05;;;;;;;17.71;100.00;101227.47;5118826;27;20085;-68
2023/09/17 03:31:41;;;;;;;17.33;14.15;;;;;;;17.70;100.00;101231.16;5118810;27;20123;-68
2023/09/17 03:34:08;;;;;;;18.67;13.90;;;;;;;17.66;100.00;101227.22;5102809;27;20383;-70
2023/09/17 03:36:35;;;;;;;14.27;12.77;;;;;;;17.60;100.00;101225.28;5115402;27;20066;-70
2023/09/17 03:39:05;;;;;;;16.98;14.52;;;;;;;17.59;100.00;101226.31;5105273;27;20059;-69
2023/09/17 03:41:32;;;;;;;15.18;12.10;;;;;;;17.59;100.00;101226.31;5113114;27;20456;-68
2023/09/17 03:43:59;;;;;;;16.02;13.55;;;;;;;17.59;100.00;101227.13;5120203;27;20051;-68
2023/09/17 03:46:25;;;;;;;20.33;14.43;;;;;;;17.55;100.00;101222.38;5119612;27;20523;-67
2023/09/17 03:48:52;;;;;;;15.02;13.48;;;;;;;17.59;100.00;101216.50;5109915;27;20416;-67
2023/09/17 03:51:18;;;;;;;17.25;14.77;;;;;;;17.57;100.00;101218.53;5099216;27;20499;-67
2023/09/17 03:53:45;;;;;;;16.75;14.63;;;;;;;17.57;100.00;101217.69;5112886;27;20112;-68
2023/09/17 03:56:12;;;;;;;18.02;14.43;;;;;;;17.57;100.00;101217.69;5104892;27;20046;-67
2023/09/17 03:58:39;;;;;;;15.80;14.10;;;;;;;17.60;100.00;101227.94;5116851;27;20483;-68
2023/09/17 04:01:06;;;;;;;25.67;17.17;;;;;;;17.62;100.00;101225.09;5097720;28;20423;-75
2023/09/17 04:03:32;;;;;;;18.23;14.90;;;;;;;17.59;100.00;101218.34;5100924;27;20054;-75
2023/09/17 04:05:59;;;;;;;20.08;15.57;;;;;;;17.61;100.00;101213.69;5109328;27;20047;-73
2023/09/17 04:08:25;;;;;;;16.65;14.82;;;;;;;17.63;100.00;101216.97;5119880;27;20047;-74
2023/09/17 04:10:55;;;;;;;19.50;15.32;;;;;;;17.62;100.00;101212.69;5110473;27;20047;-75
2023/09/17 04:13:22;;;;;;;20.00;15.07;;;;;;;17.58;100.00;101208.72;5112349;27;20496;-74
2023/09/17 04:15:49;;;;;;;20.08;16.38;;;;;;;17.53;100.00;101214.59;5100251;28;20051;-72
2023/09/17 04:18:15;;;;;;;20.77;16.05;;;;;;;17.50;100.00;101201.69;5100116;28;20039;-74
2023/09/17 04:20:42;;;;;;;20.92;15.32;;;;;;;17.52;100.00;101201.50;5104785;28;20052;-73
2023/09/17 04:23:09;;;;;;;18.38;15.02;;;;;;;17.53;100.00;101201.31;5118593;27;20549;-74
2023/09/17 04:25:36;;;;;;;19.55;14.63;;;;;;;17.56;100.00;101202.78;5099519;28;20097;-72
2023/09/17 04:28:05;;;;;;;17.58;14.05;;;;;;;17.57;100.00;101199.94;5124862;28;20503;-71
2023/09/17 04:30:31;;;;;;;19.30;15.13;;;;;;;17.55;100.00;101209.09;5105745;27;20047;-74
2023/09/17 04:32:58;;;;;;;17.08;13.23;;;;;;;17.53;100.00;101195.22;5102615;27;21479;-72
2023/09/17 04:35:24;;;;;;;21.10;16.23;;;;;;;17.46;100.00;101189.78;5117815;27;20054;-72
2023/09/17 04:37:51;;;;;;;18.42;15.75;;;;;;;17.43;100.00;101192.81;5113445;27;20055;-69
2023/09/17 04:40:18;;;;;;;20.17;16.33;;;;;;;17.37;100.00;101202.34;5112875;27;20399;-69
2023/09/17 04:42:46;;;;;;;20.38;16.40;;;;;;;17.36;100.00;101202.50;5116854;27;20062;-69
2023/09/17 04:45:35;;;;;;;23.25;17.20;;;;;;;17.36;100.00;101187.41;5111656;28;20043;-67
2023/09/17 04:48:02;;;;;;;18.63;15.43;;;;;;;17.36;100.00;101189.25;5110340;28;20047;-68
2023/09/17 04:50:29;;;;;;;16.70;13.15;;;;;;;17.36;100.00;101189.25;5116216;27;20047;-72
2023/09/17 04:52:56;;;;;;;22.13;17.40;;;;;;;17.36;100.00;101186.59;5105193;28;20445;-72
2023/09/17 04:55:22;;;;;;;22.23;17.73;;;;;;;17.34;100.00;101181.47;5122673;27;20051;-72
2023/09/17 04:57:50;;;;;;;19.45;15.82;;;;;;;17.31;100.00;101179.19;5115182;27;20049;-72
2023/09/17 05:00:16;;;;;;;17.05;14.18;;;;;;;17.30;100.00;101195.28;5104535;27;20100;-72
2023/09/17 05:02:43;;;;;;;22.15;16.52;;;;;;;17.26;100.00;101194.81;5121067;27;20487;-71
2023/09/17 05:05:10;;;;;;;23.58;17.27;;;;;;;17.29;100.00;101199.78;5116365;27;20043;-71
2023/09/17 05:07:38;;;;;;;20.63;15.98;;;;;;;17.29;100.00;101188.31;5122331;27;20051;-72
2023/09/17 05:10:06;;;;;;;19.45;17.15;;;;;;;17.29;100.00;101191.81;5104450;27;20112;-72
2023/09/17 05:12:32;;;;;;;21.85;16.98;;;;;;;17.29;100.00;101193.63;5104593;27;20135;-70
2023/09/17 05:15:00;;;;;;;19.52;13.75;;;;;;;17.33;100.00;101189.63;5104802;27;20039;-69
2023/09/17 05:17:26;;;;;;;18.25;14.73;;;;;;;17.33;100.00;101198.41;5125723;27;20539;-69
2023/09/17 05:19:53;;;;;;;22.88;17.65;;;;;;;17.29;100.00;101199.78;5125136;27;20051;-70
2023/09/17 05:22:19;;;;;;;17.33;15.45;;;;;;;17.30;100.00;101192.63;5108609;27;20518;-72
2023/09/17 05:24:46;;;;;;;20.52;16.90;;;;;;;17.28;100.00;101189.34;5107688;27;20676;-71
2023/09/17 05:27:12;;;;;;;18.67;15.55;;;;;;;17.28;100.00;101192.81;5108022;27;20051;-69
2023/09/17 05:29:40;;;;;;;23.13;18.08;;;;;;;17.30;100.00;101196.09;5121390;27;20043;-73
2023/09/17 05:32:07;;;;;;;22.00;17.45;;;;;;;17.32;100.00;101183.47;5121245;27;20051;-73
2023/09/17 05:34:34;;;;;;;21.67;17.08;;;;;;;17.30;100.00;101193.44;5121428;27;20058;-72
2023/09/17 05:37:00;;;;;;;20.48;16.27;;;;;;;17.28;100.00;101192.00;5123866;27;20047;-72
2023/09/17 05:39:27;;;;;;;20.05;16.95;;;;;;;17.32;100.00;101196.75;5099647;27;20052;-70
2023/09/17 05:41:55;;;;;;;19.20;15.45;;;;;;;17.30;100.00;101192.63;5101389;27;20048;-69
2023/09/17 05:44:22;;;;;;;20.00;15.48;;;;;;;17.32;100.00;101188.78;5116289;27;20096;-68
2023/09/17 05:46:49;;;;;;;23.38;17.85;;;;;;;17.32;100.00;101186.13;5121197;27;20100;-67
2023/09/17 05:49:15;;;;;;;19.98;15.45;;;;;;;17.35;100.00;101184.97;5100574;27;20096;-68
2023/09/17 05:51:42;;;;;;;19.70;15.95;;;;;;;17.40;100.00;101190.53;5107251;28;20051;-68
2023/09/17 05:54:09;;;;;;;19.63;15.38;;;;;;;17.44;100.00;101186.50;5118787;27;20054;-68
2023/09/17 05:56:35;;;;;;;18.83;16.02;;;;;;;17.42;100.00;101175.25;5100553;27;20096;-69
2023/09/17 05:59:01;;;;;;;20.92;14.98;;;;;;;17.39;100.00;101179.09;5122921;27;20111;-71
2023/09/17 06:01:30;;;;;;;18.00;14.32;;;;;;;17.42;100.00;101183.22;5113710;27;20806;-71
2023/09/17 06:03:56;;;;;;;16.20;12.02;;;;;;;17.36;100.00;101184.75;5125414;27;20051;-70
2023/09/17 06:06:23;;;;;;;17.90;14.88;;;;;;;17.35;100.00;101198.22;5113181;27;20174;-67
2023/09/17 06:08:50;;;;;;;16.50;13.95;;;;;;;17.39;100.00;101187.06;5101799;27;20071;-67
2023/09/17 06:11:18;;;;;;;18.67;14.13;;;;;;;17.45;100.00;101193.47;5118061;27;20552;-69
2023/09/17 06:13:45;;;;;;;19.23;14.30;;;;;;;17.45;100.00;101187.34;5101933;27;20134;-68
2023/09/17 06:16:11;;;;;;;17.05;12.38;;;;;;;17.48;100.00;101192.28;5118120;27;20065;-68
2023/09/17 06:18:38;;;;;;;18.00;14.57;;;;;;;17.46;100.00;101188.97;5119690;27;20150;-68
2023/09/17 06:21:04;;;;;;;15.75;13.80;;;;;;;17.45;100.00;101193.47;5118446;27;20148;-68
2023/09/17 06:23:31;;;;;;;16.80;13.25;;;;;;;17.41;100.00;101186.88;5121707;27;20044;-67
2023/09/17 06:25:57;;;;;;;18.38;14.23;;;;;;;17.39;100.00;101189.72;5104953;27;20051;-67
2023/09/17 06:28:24;;;;;;;18.83;13.82;;;;;;;17.35;100.00;101201.69;5115228;27;20581;-68
2023/09/17 06:30:50;;;;;;;17.65;14.68;;;;;;;17.38;100.00;101196.00;5117969;27;20462;-69
2023/09/17 06:33:17;;;;;;;18.10;14.27;;;;;;;17.42;100.00;101199.13;5125761;27;20043;-69
2023/09/17 06:35:43;;;;;;;17.25;13.30;;;;;;;17.44;100.00;101198.94;5110137;27;20067;-68
2023/09/17 06:38:11;;;;;;;15.25;13.60;;;;;;;17.45;100.00;101197.97;5118184;27;20047;-68
2023/09/17 06:40:38;;;;;;;16.63;13.23;;;;;;;17.51;100.00;101197.22;5111739;27;20048;-68
2023/09/17 06:43:04;;;;;;;17.05;13.40;;;;;;;17.50;100.00;101198.22;5109714;27;20043;-68
2023/09/17 06:45:31;;;;;;;16.35;12.77;;;;;;;17.52;100.00;101201.50;5112434;27;20544;-68
2023/09/17 06:47:57;;;;;;;13.95;11.77;;;;;;;17.55;100.00;101207.28;5116043;27;20058;-68
2023/09/17 06:50:24;;;;;;;16.58;12.93;;;;;;;17.57;100.00;101207.91;5113002;27;20050;-67
2023/09/17 06:52:50;;;;;;;15.80;12.27;;;;;;;17.62;100.00;101209.19;5111043;27;20095;-68
2023/09/17 06:55:17;;;;;;;15.23;12.18;;;;;;;17.64;100.00;101208.03;5119114;27;20046;-67
2023/09/17 06:57:43;;;;;;;17.33;12.57;;;;;;;17.67;100.00;101206.81;5121329;27;20058;-67
2023/09/17 07:00:10;;;;;;;15.73;12.20;;;;;;;17.71;100.00;101205.44;5112726;27;20091;-67
2023/09/17 07:02:37;;;;;;;16.20;12.07;;;;;;;17.72;100.00;101205.25;5124284;27;20047;-67
2023/09/17 07:05:07;;;;;;;14.85;11.77;;;;;;;17.76;100.00;101195.13;5098668;27;20050;-67
2023/09/17 07:07:34;;;;;;;16.33;12.02;;;;;;;17.77;100.00;101199.41;5118657;27;20073;-67
2023/09/17 07:10:01;;;;;;;17.08;12.48;;;;;;;17.78;100.00;101203.72;5116994;27;20035;-67
2023/09/17 07:12:27;;;;;;;13.77;12.02;;;;;;;17.78;100.00;101193.91;5110467;27;20108;-67
2023/09/17 07:14:54;;;;;;;16.58;12.13;;;;;;;17.76;100.00;101187.97;5120800;27;20043;-66
2023/09/17 07:17:21;;;;;;;15.25;12.38;;;;;;;17.78;100.00;101193.09;5114034;27;20050;-66
2023/09/17 07:19:47;;;;;;;15.15;11.70;;;;;;;17.83;100.00;101188.03;5113567;27;20044;-67
2023/09/17 07:22:14;;;;;;;13.55;11.85;;;;;;;17.88;100.00;101192.84;5110407;27;20481;-67
2023/09/17 07:24:42;;;;;;;17.80;13.10;;;;;;;17.83;100.00;101190.69;5106281;27;20051;-67
2023/09/17 07:27:08;;;;;;;15.90;12.50;;;;;;;17.83;100.00;101189.88;5102932;27;21176;-66
2023/09/17 07:29:35;;;;;;;16.45;11.57;;;;;;;17.86;100.00;101190.38;5111598;27;20575;-67
2023/09/17 07:32:01;;;;;;;14.65;12.05;;;;;;;17.88;100.00;101198.97;5103194;27;20058;-67
2023/09/17 07:34:29;;;;;;;16.90;12.18;;;;;;;17.89;100.00;101197.13;5103056;27;20538;-67
2023/09/17 07:36:56;;;;;;;14.38;12.25;;;;;;;17.89;100.00;101200.59;5104353;28;20055;-67
2023/09/17 07:39:22;;;;;;;18.20;12.18;;;;;;;17.86;100.00;101195.66;5108133;27;20071;-66
2023/09/17 07:41:49;;;;;;;15.38;12.07;;;;;;;17.86;100.00;101194.84;5106579;27;20051;-66
2023/09/17 07:44:15;;;;;;;16.27;12.70;;;;;;;17.87;100.00;101196.50;5116340;27;20289;-66
2023/09/17 07:46:41;;;;;;;18.20;11.73;;;;;;;17.86;100.00;101195.66;5103410;27;20051;-66
2023/09/17 07:50:05;;;;;;;14.13;11.90;;;;;;;-145.50;100.00;65435.88;5114012;27;20436;-66
2023/09/17 07:52:32;;;;;;;15.65;11.88;;;;;;;17.85;100.00;101196.66;5103753;27;20077;-66
2023/09/17 07:54:59;;;;;;;16.30;12.45;;;;;;;17.83;100.00;101189.88;5116813;27;20050;-67
2023/09/17 07:57:25;;;;;;;19.83;12.85;;;;;;;17.86;100.00;101192.19;5120176;27;20043;-66
2023/09/17 07:59:53;;;;;;;15.85;13.25;;;;;;;17.88;100.00;101191.00;5114420;27;20047;-66
2023/09/17 08:02:20;;;;;;;16.38;13.15;;;;;;;17.87;100.00;101186.69;5097349;27;20089;-66
2023/09/17 08:04:46;;;;;;;16.10;13.07;;;;;;;17.95;100.00;101194.56;5118635;27;20055;-67
2023/09/17 08:07:13;;;;;;;14.35;12.38;;;;;;;18.01;100.00;101190.31;5098540;27;20039;-66
2023/09/17 08:09:40;;;;;;;18.23;12.77;;;;;;;18.03;100.00;101190.13;5105968;28;20124;-67
2023/09/17 08:12:07;;;;;;;14.75;11.40;;;;;;;18.03;100.00;101196.25;5104693;27;20056;-67
2023/09/17 08:14:34;;;;;;;15.07;11.85;;;;;;;18.06;100.00;101198.56;5115102;27;20396;-67
2023/09/17 08:17:02;;;;;;;13.55;11.63;;;;;;;18.12;100.00;101197.81;5124508;27;20600;-66
2023/09/17 08:19:29;;;;;;;17.60;12.75;;;;;;;18.13;100.00;101191.50;5118210;27;20107;-67
2023/09/17 08:21:56;;;;;;;16.20;12.43;;;;;;;18.21;100.00;101190.56;5121264;28;20126;-67
2023/09/17 08:24:25;;;;;;;14.43;11.98;;;;;;;18.24;100.00;101186.72;5107244;27;20051;-67
2023/09/17 08:26:54;;;;;;;15.65;13.15;;;;;;;18.25;100.00;101196.31;5123815;27;20047;-67
2023/09/17 08:29:21;;;;;;;12.20;8.63;;;;;;;18.28;100.00;101191.44;5123468;27;20107;-67
2023/09/17 08:31:48;;;;;;;17.25;14.13;;;;;;;-145.50;100.00;101189.41;5102096;27;20047;-67
2023/09/17 08:34:15;;;;;;;20.30;14.68;;;;;;;18.31;100.00;101190.25;5116726;27;20129;-67
2023/09/17 08:36:42;;;;;;;21.40;15.15;;;;;;;18.26;100.00;101182.84;5112437;27;20051;-67
2023/09/17 08:39:08;;;;;;;18.08;15.00;;;;;;;-145.50;100.00;65435.88;5111227;27;20502;-67
2023/09/17 08:41:36;;;;;;;19.35;15.98;;;;;;;-145.50;100.00;65435.88;5122483;27;20057;-67
2023/09/17 08:44:06;;;;;;;18.98;15.93;;;;;;;-145.50;100.00;65435.88;5124962;27;20115;-67
2023/09/17 08:46:35;;;;;;;18.52;14.98;;;;;;;-145.50;100.00;65435.88;5115181;27;20075;-68
2023/09/17 08:49:01;;;;;;;20.92;15.23;;;;;;;-145.50;100.00;65435.88;5117507;27;20474;-68
2023/09/17 08:51:33;;;;;;;20.77;16.50;;;;;;;-145.50;100.00;65435.88;5119543;27;20065;-67
2023/09/17 08:54:17;;;;;;;21.38;16.67;;;;;;;18.32;100.00;101197.19;5110167;27;20055;-67
2023/09/17 08:56:45;;;;;;;19.35;15.60;;;;;;;18.26;100.00;101200.63;5117914;27;20051;-68
2023/09/17 08:59:22;;;;;;;21.63;16.77;;;;;;;-145.50;100.00;65435.88;5119312;27;20051;-67
2023/09/17 09:01:50;;;;;;;23.95;17.63;;;;;;;-145.50;100.00;65435.88;5110673;27;20255;-67
2023/09/17 09:04:17;;;;;;;;;;;;;;;18.37;100.00;101200.94;5102664;27;20116;-66
2023/09/17 09:06:45;;;;;;;23.63;17.50;;;;;;;18.36;100.00;101201.13;5112673;27;20444;-66
2023/09/17 09:09:12;;;;;;;;;;;;;;;18.39;100.00;101200.75;5126665;27;20647;-67
2023/09/17 09:11:42;;;;;;;19.15;16.48;;;;;;;18.35;100.00;101196.84;5115445;27;19931;-69
2023/09/17 09:14:11;;;;;;;24.38;17.85;;;;;;;18.41;100.00;101208.53;5120973;27;20081;-67
2023/09/17 09:16:38;;;;;;;23.25;18.95;;;;;;;18.41;100.00;101208.53;5099274;27;20047;-66
2023/09/17 09:19:06;;;;;;;22.35;19.10;;;;;;;18.40;100.00;101215.66;5109725;27;20130;-68
2023/09/17 09:21:32;;;;;;;20.88;16.52;;;;;;;18.42;100.00;101212.84;5115223;27;20052;-67
2023/09/17 09:23:59;;;;;;;24.63;20.33;;;;;;;18.45;100.00;101215.94;5119611;27;20047;-66
2023/09/17 09:26:40;;;;;;;26.13;19.55;;;;;;;18.49;100.00;101211.88;5121097;27;20508;-66
2023/09/17 09:29:08;;;;;;;23.65;19.30;;;;;;;18.54;100.00;101206.84;5113296;27;20059;-66
2023/09/17 09:31:35;;;;;;;24.80;19.90;;;;;;;18.62;100.00;101210.38;5117247;27;20560;-66
2023/09/17 09:34:02;;;;;;;27.23;21.33;;;;;;;18.64;100.00;101211.84;5113930;27;20047;-66
2023/09/17 09:36:34;;;;;;;25.00;21.50;;;;;;;18.69;100.00;101211.25;5120758;27;20055;-66
2023/09/17 09:39:01;;;;;;;27.50;22.35;;;;;;;18.73;100.00;101212.53;5114972;27;20457;-67
2023/09/17 09:41:32;;;;;;;25.90;20.80;;;;;;;18.69;100.00;101205.94;5118777;27;20054;-66
2023/09/17 09:44:00;;;;;;;26.63;21.17;;;;;;;18.75;100.00;101216.63;5113256;27;20558;-66
2023/09/17 09:46:28;;;;;;;28.23;22.90;;;;;;;18.81;100.00;101209.75;5103634;27;20059;-66
2023/09/17 09:49:01;;;;;;;26.40;21.17;;;;;;;18.86;100.00;101203.88;5122326;27;20055;-67
2023/09/17 09:51:29;;;;;;;26.27;21.73;;;;;;;18.89;100.00;101203.50;5115148;27;20082;-65
2023/09/17 09:53:56;;;;;;;;;;;;;;;19.01;100.00;101201.13;5122457;27;20111;-66
2023/09/17 09:56:27;;;;;;;19.85;14.75;;;;;;;19.09;100.00;101195.66;5111240;27;19920;-66
2023/09/17 09:58:55;;;;;;;26.83;22.73;;;;;;;19.17;100.00;101192.88;5111216;27;20043;-66
2023/09/17 10:01:22;;;;;;;27.48;21.98;;;;;;;19.20;100.00;101203.13;5117981;27;20047;-66
2023/09/17 10:03:50;;;;;;;28.92;22.38;;;;;;;19.26;100.00;101196.19;5115127;27;20142;-66
2023/09/17 10:06:17;;;;;;;26.73;20.88;;;;;;;19.33;100.00;101197.88;5120655;27;20051;-66
2023/09/17 10:08:44;;;;;;;26.98;22.92;;;;;;;19.36;100.00;101200.13;5114392;27;20050;-68
2023/09/17 10:11:12;;;;;;;23.58;20.70;;;;;;;19.40;100.00;101191.78;5119011;27;20047;-66
2023/09/17 10:13:40;;;;;;;30.05;23.00;;;;;;;19.44;100.00;101199.16;5114995;27;20043;-67
2023/09/17 10:16:07;;;;;;;;;;;;;;;19.53;100.00;101186.53;5122659;27;20625;-67
2023/09/17 10:18:36;;;;;;;27.20;22.85;;;;;;;19.53;100.00;101184.69;5123051;27;20562;-68
2023/09/17 10:21:04;;;;;;;16.85;14.77;;;;;;;19.60;100.00;101186.56;5114133;27;20039;-68
2023/09/17 10:23:33;;;;;;;26.40;21.80;;;;;;;19.63;100.00;101178.19;5121548;27;20392;-65
2023/09/17 10:26:03;;;;;;;22.63;20.10;;;;;;;19.74;100.00;101172.34;5109625;27;20047;-65
2023/09/17 10:28:33;;;;;;;27.85;23.58;;;;;;;19.78;100.00;101170.09;5119312;27;20054;-65
2023/09/17 10:31:01;;;;;;;27.42;22.70;;;;;;;19.81;100.00;101173.19;5116022;27;20057;-65
2023/09/17 10:33:31;;;;;;;21.48;17.63;;;;;;;19.89;100.00;101173.00;5121740;27;20115;-66
2023/09/17 10:35:59;;;;;;;28.05;24.00;;;;;;;19.93;100.00;101176.94;5121279;27;20130;-66
2023/09/17 10:38:27;;;;;;;30.45;23.25;;;;;;;20.04;100.00;101164.88;5105396;27;20051;-65
2023/09/17 10:40:55;;;;;;;25.00;18.77;;;;;;;20.17;100.00;101165.91;5119249;27;20718;-66
2023/09/17 10:43:24;;;;;;;31.10;23.95;;;;;;;20.26;100.00;101162.88;5113950;27;20040;-66
2023/09/17 10:45:53;;;;;;;31.35;24.77;;;;;;;20.31;100.00;101162.28;5121727;27;20050;-67
2023/09/17 10:48:21;;;;;;;28.30;23.88;;;;;;;20.35;100.00;101164.31;5115156;27;20079;-66
2023/09/17 10:50:48;;;;;;;26.10;20.17;;;;;;;20.38;100.00;101164.94;5118107;27;20043;-66
2023/09/17 10:53:15;;;;;;;28.87;25.10;;;;;;;20.41;100.00;101165.34;5114370;27;20039;-67
2023/09/17 10:55:46;;;;;;;31.88;25.30;;;;;;;20.43;100.00;101165.97;5109133;27;20290;-68
2023/09/17 10:58:27;;;;;;;30.38;24.58;;;;;;;20.44;100.00;101164.13;5117468;27;20109;-66
2023/09/17 11:00:57;;;;;;;31.38;24.05;;;;;;;20.43;100.00;101165.16;5116954;27;20131;-66
2023/09/17 11:03:26;;;;;;;33.25;24.80;;;;;;;20.45;100.00;101160.44;5120021;27;20051;-66
2023/09/17 11:05:56;;;;;;;32.30;25.45;;;;;;;20.50;100.00;101164.16;5108724;27;20090;-67